sensor_id;sensor_type;location;lat;lon;timestamp;temperature;humidity
72762;SHT30;60886;55.034;73.150;2023-07-13T00:00:03;25.62;48.30
72762;SHT30;60886;55.034;73.150;2023-07-13T00:03:10;25.73;48.70
72762;SHT30;60886;55.034;73.150;2023-07-13T00:06:14;25.83;49.04
72762;SHT30;60886;55.034;73.150;2023-07-13T00:09:17;25.91;48.30
72762;SHT30;60886;55.034;73.150;2023-07-13T00:12:26;26.02;49.24
72762;SHT30;60886;55.034;73.150;2023-07-13T00:15:28;26.16;48.07
72762;SHT30;60886;55.034;73.150;2023-07-13T00:18:32;26.30;47.66
72762;SHT30;60886;55.034;73.150;2023-07-13T00:21:35;26.41;47.79
72762;SHT30;60886;55.034;73.150;2023-07-13T00:24:36;26.49;48.12
72762;SHT30;60886;55.034;73.150;2023-07-13T00:27:44;26.59;47.54
72762;SHT30;60886;55.034;73.150;2023-07-13T00:30:48;26.71;47.12
72762;SHT30;60886;55.034;73.150;2023-07-13T00:33:49;26.76;47.80
72762;SHT30;60886;55.034;73.150;2023-07-13T00:36:51;26.83;48.19
72762;SHT30;60886;55.034;73.150;2023-07-13T00:39:54;26.89;48.74
72762;SHT30;60886;55.034;73.150;2023-07-13T00:42:58;26.91;48.30
72762;SHT30;60886;55.034;73.150;2023-07-13T00:46:11;26.92;48.20
72762;SHT30;60886;55.034;73.150;2023-07-13T00:49:15;26.91;47.62
72762;SHT30;60886;55.034;73.150;2023-07-13T00:52:18;26.88;48.82
72762;SHT30;60886;55.034;73.150;2023-07-13T00:55:21;26.88;49.65
72762;SHT30;60886;55.034;73.150;2023-07-13T00:58:25;26.85;48.87
72762;SHT30;60886;55.034;73.150;2023-07-13T01:01:27;26.78;48.46
72762;SHT30;60886;55.034;73.150;2023-07-13T01:04:28;26.69;48.41
72762;SHT30;60886;55.034;73.150;2023-07-13T01:07:30;26.63;49.78
72762;SHT30;60886;55.034;73.150;2023-07-13T01:10:33;26.56;49.11
72762;SHT30;60886;55.034;73.150;2023-07-13T01:13:40;26.55;48.95
72762;SHT30;60886;55.034;73.150;2023-07-13T01:16:45;26.55;50.26
72762;SHT30;60886;55.034;73.150;2023-07-13T01:19:48;26.63;49.14
72762;SHT30;60886;55.034;73.150;2023-07-13T01:22:49;26.95;49.34
72762;SHT30;60886;55.034;73.150;2023-07-13T01:25:52;27.32;48.57
72762;SHT30;60886;55.034;73.150;2023-07-13T01:28:54;27.73;47.53
72762;SHT30;60886;55.034;73.150;2023-07-13T01:31:57;28.19;47.99
72762;SHT30;60886;55.034;73.150;2023-07-13T01:35:01;28.39;46.45
72762;SHT30;60886;55.034;73.150;2023-07-13T01:38:04;28.71;45.97
72762;SHT30;60886;55.034;73.150;2023-07-13T01:41:06;29.00;45.18
72762;SHT30;60886;55.034;73.150;2023-07-13T01:44:08;29.31;44.83
72762;SHT30;60886;55.034;73.150;2023-07-13T01:47:10;29.60;43.38
72762;SHT30;60886;55.034;73.150;2023-07-13T01:50:12;29.84;42.50
72762;SHT30;60886;55.034;73.150;2023-07-13T01:53:13;30.05;41.40
72762;SHT30;60886;55.034;73.150;2023-07-13T01:56:14;30.29;40.67
72762;SHT30;60886;55.034;73.150;2023-07-13T01:59:16;30.40;42.00
72762;SHT30;60886;55.034;73.150;2023-07-13T02:02:17;30.43;41.30
72762;SHT30;60886;55.034;73.150;2023-07-13T02:05:19;30.65;40.72
72762;SHT30;60886;55.034;73.150;2023-07-13T02:08:22;30.83;39.51
72762;SHT30;60886;55.034;73.150;2023-07-13T02:11:23;30.84;39.62
72762;SHT30;60886;55.034;73.150;2023-07-13T02:14:25;30.82;40.21
72762;SHT30;60886;55.034;73.150;2023-07-13T02:17:27;30.78;40.14
72762;SHT30;60886;55.034;73.150;2023-07-13T02:20:29;30.89;40.80
72762;SHT30;60886;55.034;73.150;2023-07-13T02:23:30;31.01;41.61
72762;SHT30;60886;55.034;73.150;2023-07-13T02:26:32;31.09;39.89
72762;SHT30;60886;55.034;73.150;2023-07-13T02:29:33;31.13;40.05
72762;SHT30;60886;55.034;73.150;2023-07-13T02:32:35;31.41;39.73
72762;SHT30;60886;55.034;73.150;2023-07-13T02:35:36;31.73;39.72
72762;SHT30;60886;55.034;73.150;2023-07-13T02:38:38;32.09;40.85
72762;SHT30;60886;55.034;73.150;2023-07-13T02:41:39;32.45;39.67
72762;SHT30;60886;55.034;73.150;2023-07-13T02:44:41;32.39;38.14
72762;SHT30;60886;55.034;73.150;2023-07-13T02:47:42;32.31;40.96
72762;SHT30;60886;55.034;73.150;2023-07-13T02:50:48;32.40;39.05
72762;SHT30;60886;55.034;73.150;2023-07-13T02:53:51;32.46;38.22
72762;SHT30;60886;55.034;73.150;2023-07-13T02:56:52;32.52;38.44
72762;SHT30;60886;55.034;73.150;2023-07-13T02:59:54;32.55;38.05
72762;SHT30;60886;55.034;73.150;2023-07-13T03:02:56;32.62;38.69
72762;SHT30;60886;55.034;73.150;2023-07-13T03:06:00;32.82;38.08
72762;SHT30;60886;55.034;73.150;2023-07-13T03:09:08;32.97;39.73
72762;SHT30;60886;55.034;73.150;2023-07-13T03:12:13;33.13;39.63
72762;SHT30;60886;55.034;73.150;2023-07-13T03:15:15;33.17;39.39
72762;SHT30;60886;55.034;73.150;2023-07-13T03:18:19;33.26;38.88
72762;SHT30;60886;55.034;73.150;2023-07-13T03:21:21;33.46;40.05
72762;SHT30;60886;55.034;73.150;2023-07-13T03:24:23;33.60;38.03
72762;SHT30;60886;55.034;73.150;2023-07-13T03:27:27;33.74;35.49
72762;SHT30;60886;55.034;73.150;2023-07-13T03:30:29;33.84;36.17
72762;SHT30;60886;55.034;73.150;2023-07-13T03:33:32;33.97;37.28
72762;SHT30;60886;55.034;73.150;2023-07-13T03:36:34;34.02;37.20
72762;SHT30;60886;55.034;73.150;2023-07-13T03:39:40;34.11;36.60
72762;SHT30;60886;55.034;73.150;2023-07-13T03:42:41;34.08;36.54
72762;SHT30;60886;55.034;73.150;2023-07-13T03:45:48;34.29;34.49
72762;SHT30;60886;55.034;73.150;2023-07-13T03:48:49;34.41;33.97
72762;SHT30;60886;55.034;73.150;2023-07-13T03:51:52;34.42;34.35
72762;SHT30;60886;55.034;73.150;2023-07-13T03:54:54;34.32;37.65
72762;SHT30;60886;55.034;73.150;2023-07-13T04:01:27;34.53;36.46
72762;SHT30;60886;55.034;73.150;2023-07-13T04:04:30;34.60;35.71
72762;SHT30;60886;55.034;73.150;2023-07-13T04:07:32;34.57;36.78
72762;SHT30;60886;55.034;73.150;2023-07-13T04:10:34;34.72;36.30
72762;SHT30;60886;55.034;73.150;2023-07-13T04:13:36;34.70;35.94
72762;SHT30;60886;55.034;73.150;2023-07-13T04:16:37;34.85;34.23
72762;SHT30;60886;55.034;73.150;2023-07-13T04:19:42;34.83;34.32
72762;SHT30;60886;55.034;73.150;2023-07-13T04:22:43;34.97;35.38
72762;SHT30;60886;55.034;73.150;2023-07-13T04:25:49;35.07;34.04
72762;SHT30;60886;55.034;73.150;2023-07-13T04:28:53;35.18;35.74
72762;SHT30;60886;55.034;73.150;2023-07-13T04:31:56;35.24;35.30
72762;SHT30;60886;55.034;73.150;2023-07-13T04:34:57;35.33;34.84
72762;SHT30;60886;55.034;73.150;2023-07-13T04:38:00;35.41;35.64
72762;SHT30;60886;55.034;73.150;2023-07-13T04:41:04;35.46;34.12
72762;SHT30;60886;55.034;73.150;2023-07-13T04:44:06;35.43;33.96
72762;SHT30;60886;55.034;73.150;2023-07-13T04:47:08;35.47;35.55
72762;SHT30;60886;55.034;73.150;2023-07-13T04:50:09;35.48;33.41
72762;SHT30;60886;55.034;73.150;2023-07-13T04:53:16;35.41;33.27
72762;SHT30;60886;55.034;73.150;2023-07-13T04:56:17;35.43;35.55
72762;SHT30;60886;55.034;73.150;2023-07-13T04:59:20;35.60;33.54
72762;SHT30;60886;55.034;73.150;2023-07-13T05:02:22;35.64;33.28
72762;SHT30;60886;55.034;73.150;2023-07-13T05:05:25;35.43;34.24
72762;SHT30;60886;55.034;73.150;2023-07-13T05:08:27;35.20;34.97
72762;SHT30;60886;55.034;73.150;2023-07-13T05:11:29;35.06;34.81
72762;SHT30;60886;55.034;73.150;2023-07-13T05:14:30;35.00;35.54
72762;SHT30;60886;55.034;73.150;2023-07-13T05:17:34;35.03;36.28
72762;SHT30;60886;55.034;73.150;2023-07-13T05:20:35;35.10;35.94
72762;SHT30;60886;55.034;73.150;2023-07-13T05:23:37;35.20;35.45
72762;SHT30;60886;55.034;73.150;2023-07-13T05:26:38;35.27;37.02
72762;SHT30;60886;55.034;73.150;2023-07-13T05:29:40;35.48;33.34
72762;SHT30;60886;55.034;73.150;2023-07-13T05:32:42;35.54;35.01
72762;SHT30;60886;55.034;73.150;2023-07-13T05:35:48;35.68;33.72
72762;SHT30;60886;55.034;73.150;2023-07-13T05:38:49;35.70;33.71
72762;SHT30;60886;55.034;73.150;2023-07-13T05:41:50;35.65;32.85
72762;SHT30;60886;55.034;73.150;2023-07-13T05:44:52;35.70;34.66
72762;SHT30;60886;55.034;73.150;2023-07-13T05:47:54;35.64;33.55
72762;SHT30;60886;55.034;73.150;2023-07-13T05:50:57;35.61;34.52
72762;SHT30;60886;55.034;73.150;2023-07-13T05:53:58;35.51;32.94
72762;SHT30;60886;55.034;73.150;2023-07-13T05:57:00;35.55;32.78
72762;SHT30;60886;55.034;73.150;2023-07-13T06:00:01;35.48;33.83
72762;SHT30;60886;55.034;73.150;2023-07-13T06:03:14;35.53;32.46
72762;SHT30;60886;55.034;73.150;2023-07-13T06:06:16;35.48;32.40
72762;SHT30;60886;55.034;73.150;2023-07-13T06:09:18;35.40;33.49
72762;SHT30;60886;55.034;73.150;2023-07-13T06:12:19;35.44;33.80
72762;SHT30;60886;55.034;73.150;2023-07-13T06:15:21;35.53;33.46
72762;SHT30;60886;55.034;73.150;2023-07-13T06:18:22;35.54;33.01
72762;SHT30;60886;55.034;73.150;2023-07-13T06:21:26;35.53;32.92
72762;SHT30;60886;55.034;73.150;2023-07-13T06:24:27;35.44;33.18
72762;SHT30;60886;55.034;73.150;2023-07-13T06:27:29;35.40;32.56
72762;SHT30;60886;55.034;73.150;2023-07-13T06:30:30;35.40;32.87
72762;SHT30;60886;55.034;73.150;2023-07-13T06:33:33;35.37;32.79
72762;SHT30;60886;55.034;73.150;2023-07-13T06:36:34;35.36;33.36
72762;SHT30;60886;55.034;73.150;2023-07-13T06:39:37;35.37;33.50
72762;SHT30;60886;55.034;73.150;2023-07-13T06:42:38;35.33;33.19
72762;SHT30;60886;55.034;73.150;2023-07-13T06:45:48;35.43;34.07
72762;SHT30;60886;55.034;73.150;2023-07-13T06:48:52;35.60;34.26
72762;SHT30;60886;55.034;73.150;2023-07-13T06:51:54;35.62;33.21
72762;SHT30;60886;55.034;73.150;2023-07-13T06:54:55;35.73;33.03
72762;SHT30;60886;55.034;73.150;2023-07-13T06:57:57;35.78;33.56
72762;SHT30;60886;55.034;73.150;2023-07-13T07:00:59;35.78;32.43
72762;SHT30;60886;55.034;73.150;2023-07-13T07:04:00;35.67;32.05
72762;SHT30;60886;55.034;73.150;2023-07-13T07:07:02;35.74;33.01
72762;SHT30;60886;55.034;73.150;2023-07-13T07:10:19;35.87;34.05
72762;SHT30;60886;55.034;73.150;2023-07-13T07:13:21;35.88;33.21
72762;SHT30;60886;55.034;73.150;2023-07-13T07:16:24;35.80;33.20
72762;SHT30;60886;55.034;73.150;2023-07-13T07:19:29;35.82;31.44
72762;SHT30;60886;55.034;73.150;2023-07-13T07:22:31;35.87;29.81
72762;SHT30;60886;55.034;73.150;2023-07-13T07:25:33;35.91;30.12
72762;SHT30;60886;55.034;73.150;2023-07-13T07:28:38;35.99;31.97
72762;SHT30;60886;55.034;73.150;2023-07-13T07:31:39;36.09;31.93
72762;SHT30;60886;55.034;73.150;2023-07-13T07:34:41;36.22;32.42
72762;SHT30;60886;55.034;73.150;2023-07-13T07:37:42;36.18;32.21
72762;SHT30;60886;55.034;73.150;2023-07-13T07:40:48;36.01;30.98
72762;SHT30;60886;55.034;73.150;2023-07-13T07:43:49;36.01;31.12
72762;SHT30;60886;55.034;73.150;2023-07-13T07:46:50;35.94;31.21
72762;SHT30;60886;55.034;73.150;2023-07-13T07:49:52;35.97;30.59
72762;SHT30;60886;55.034;73.150;2023-07-13T07:52:53;36.12;29.68
72762;SHT30;60886;55.034;73.150;2023-07-13T07:55:57;36.24;29.58
72762;SHT30;60886;55.034;73.150;2023-07-13T07:58:58;36.25;29.27
72762;SHT30;60886;55.034;73.150;2023-07-13T08:01:59;36.31;28.88
72762;SHT30;60886;55.034;73.150;2023-07-13T08:05:03;36.35;31.71
72762;SHT30;60886;55.034;73.150;2023-07-13T08:08:05;36.38;30.35
72762;SHT30;60886;55.034;73.150;2023-07-13T08:11:08;36.42;29.68
72762;SHT30;60886;55.034;73.150;2023-07-13T08:14:10;36.49;29.68
72762;SHT30;60886;55.034;73.150;2023-07-13T08:17:11;36.53;29.93
72762;SHT30;60886;55.034;73.150;2023-07-13T08:20:13;36.65;30.72
72762;SHT30;60886;55.034;73.150;2023-07-13T08:23:14;36.69;30.38
72762;SHT30;60886;55.034;73.150;2023-07-13T08:26:17;36.59;28.90
72762;SHT30;60886;55.034;73.150;2023-07-13T08:29:20;36.62;28.09
72762;SHT30;60886;55.034;73.150;2023-07-13T08:32:22;36.72;29.55
72762;SHT30;60886;55.034;73.150;2023-07-13T08:35:24;36.78;27.72
72762;SHT30;60886;55.034;73.150;2023-07-13T08:38:27;36.79;26.76
72762;SHT30;60886;55.034;73.150;2023-07-13T08:41:29;36.82;27.22
72762;SHT30;60886;55.034;73.150;2023-07-13T08:48:03;36.82;27.74
72762;SHT30;60886;55.034;73.150;2023-07-13T08:54:43;36.93;27.62
72762;SHT30;60886;55.034;73.150;2023-07-13T08:57:50;36.84;27.70
72762;SHT30;60886;55.034;73.150;2023-07-13T09:01:13;36.86;28.12
72762;SHT30;60886;55.034;73.150;2023-07-13T09:04:29;36.87;27.88
72762;SHT30;60886;55.034;73.150;2023-07-13T09:08:01;36.84;28.28
72762;SHT30;60886;55.034;73.150;2023-07-13T09:14:48;36.90;28.98
72762;SHT30;60886;55.034;73.150;2023-07-13T09:17:51;36.92;28.99
72762;SHT30;60886;55.034;73.150;2023-07-13T09:21:21;36.89;28.55
72762;SHT30;60886;55.034;73.150;2023-07-13T09:24:51;36.80;27.85
72762;SHT30;60886;55.034;73.150;2023-07-13T09:27:58;36.72;28.74
72762;SHT30;60886;55.034;73.150;2023-07-13T09:34:11;36.63;30.59
72762;SHT30;60886;55.034;73.150;2023-07-13T09:37:13;36.72;30.24
72762;SHT30;60886;55.034;73.150;2023-07-13T09:40:25;36.76;29.58
72762;SHT30;60886;55.034;73.150;2023-07-13T09:43:30;36.83;29.70
72762;SHT30;60886;55.034;73.150;2023-07-13T09:46:32;36.89;28.54
72762;SHT30;60886;55.034;73.150;2023-07-13T09:49:36;36.94;28.33
72762;SHT30;60886;55.034;73.150;2023-07-13T09:52:41;36.96;27.19
72762;SHT30;60886;55.034;73.150;2023-07-13T09:55:48;37.03;27.69
72762;SHT30;60886;55.034;73.150;2023-07-13T09:58:50;37.06;28.22
72762;SHT30;60886;55.034;73.150;2023-07-13T10:01:51;36.97;28.04
72762;SHT30;60886;55.034;73.150;2023-07-13T10:04:59;37.03;29.08
72762;SHT30;60886;55.034;73.150;2023-07-13T10:08:00;37.02;28.75
72762;SHT30;60886;55.034;73.150;2023-07-13T10:11:22;36.99;28.49
72762;SHT30;60886;55.034;73.150;2023-07-13T10:14:26;36.97;28.75
72762;SHT30;60886;55.034;73.150;2023-07-13T10:17:32;36.99;28.50
72762;SHT30;60886;55.034;73.150;2023-07-13T10:20:34;37.04;28.38
72762;SHT30;60886;55.034;73.150;2023-07-13T10:23:35;36.92;28.33
72762;SHT30;60886;55.034;73.150;2023-07-13T10:26:41;36.87;27.13
72762;SHT30;60886;55.034;73.150;2023-07-13T10:32:48;36.87;27.06
72762;SHT30;60886;55.034;73.150;2023-07-13T10:36:12;36.86;27.88
72762;SHT30;60886;55.034;73.150;2023-07-13T10:39:24;36.79;27.43
72762;SHT30;60886;55.034;73.150;2023-07-13T10:42:36;36.83;27.78
72762;SHT30;60886;55.034;73.150;2023-07-13T10:45:48;36.78;27.96
72762;SHT30;60886;55.034;73.150;2023-07-13T10:48:55;36.78;28.58
72762;SHT30;60886;55.034;73.150;2023-07-13T10:51:58;36.69;28.52
72762;SHT30;60886;55.034;73.150;2023-07-13T10:55:02;36.62;28.67
72762;SHT30;60886;55.034;73.150;2023-07-13T10:58:15;36.62;28.87
72762;SHT30;60886;55.034;73.150;2023-07-13T11:01:19;36.57;29.39
72762;SHT30;60886;55.034;73.150;2023-07-13T11:04:21;36.63;28.89
72762;SHT30;60886;55.034;73.150;2023-07-13T11:07:28;36.70;28.32
72762;SHT30;60886;55.034;73.150;2023-07-13T11:10:52;36.70;28.47
72762;SHT30;60886;55.034;73.150;2023-07-13T11:13:59;36.59;28.35
72762;SHT30;60886;55.034;73.150;2023-07-13T11:20:35;36.51;28.62
72762;SHT30;60886;55.034;73.150;2023-07-13T11:23:42;36.56;29.23
72762;SHT30;60886;55.034;73.150;2023-07-13T11:29:48;36.43;29.99
72762;SHT30;60886;55.034;73.150;2023-07-13T11:32:52;36.36;30.10
72762;SHT30;60886;55.034;73.150;2023-07-13T11:36:06;36.25;30.84
72762;SHT30;60886;55.034;73.150;2023-07-13T11:39:28;36.18;30.88
72762;SHT30;60886;55.034;73.150;2023-07-13T11:42:31;36.12;30.76
72762;SHT30;60886;55.034;73.150;2023-07-13T11:45:32;36.06;31.00
72762;SHT30;60886;55.034;73.150;2023-07-13T11:48:34;36.01;30.91
72762;SHT30;60886;55.034;73.150;2023-07-13T11:51:38;35.92;31.12
72762;SHT30;60886;55.034;73.150;2023-07-13T11:54:53;35.84;30.95
72762;SHT30;60886;55.034;73.150;2023-07-13T11:58:23;35.70;30.87
72762;SHT30;60886;55.034;73.150;2023-07-13T12:01:28;35.62;31.21
72762;SHT30;60886;55.034;73.150;2023-07-13T12:04:42;35.53;31.72
72762;SHT30;60886;55.034;73.150;2023-07-13T12:07:44;35.41;32.85
72762;SHT30;60886;55.034;73.150;2023-07-13T12:10:48;35.26;32.64
72762;SHT30;60886;55.034;73.150;2023-07-13T12:13:57;35.17;32.74
72762;SHT30;60886;55.034;73.150;2023-07-13T12:16:58;35.10;32.74
72762;SHT30;60886;55.034;73.150;2023-07-13T12:20:19;34.99;33.75
72762;SHT30;60886;55.034;73.150;2023-07-13T12:26:26;34.63;36.79
72762;SHT30;60886;55.034;73.150;2023-07-13T12:29:28;34.45;36.26
72762;SHT30;60886;55.034;73.150;2023-07-13T12:32:29;34.32;37.00
72762;SHT30;60886;55.034;73.150;2023-07-13T12:35:32;34.22;37.32
72762;SHT30;60886;55.034;73.150;2023-07-13T12:38:36;34.09;37.15
72762;SHT30;60886;55.034;73.150;2023-07-13T12:41:38;34.08;36.32
72762;SHT30;60886;55.034;73.150;2023-07-13T12:44:41;34.13;36.84
72762;SHT30;60886;55.034;73.150;2023-07-13T12:47:48;34.16;39.14
72762;SHT30;60886;55.034;73.150;2023-07-13T12:50:50;33.98;39.52
72762;SHT30;60886;55.034;73.150;2023-07-13T12:54:05;33.78;39.00
72762;SHT30;60886;55.034;73.150;2023-07-13T12:57:14;33.71;40.08
72762;SHT30;60886;55.034;73.150;2023-07-13T13:00:30;33.67;41.09
72762;SHT30;60886;55.034;73.150;2023-07-13T13:06:35;33.72;41.07
72762;SHT30;60886;55.034;73.150;2023-07-13T13:09:38;33.65;40.29
72762;SHT30;60886;55.034;73.150;2023-07-13T13:12:40;33.62;39.81
72762;SHT30;60886;55.034;73.150;2023-07-13T13:15:48;33.54;39.50
72762;SHT30;60886;55.034;73.150;2023-07-13T13:18:51;33.48;39.95
72762;SHT30;60886;55.034;73.150;2023-07-13T13:21:55;33.39;39.74
72762;SHT30;60886;55.034;73.150;2023-07-13T13:24:57;33.30;39.55
72762;SHT30;60886;55.034;73.150;2023-07-13T13:27:59;33.16;39.81
72762;SHT30;60886;55.034;73.150;2023-07-13T13:31:00;33.06;39.84
72762;SHT30;60886;55.034;73.150;2023-07-13T13:34:01;32.96;40.13
72762;SHT30;60886;55.034;73.150;2023-07-13T13:37:03;32.86;40.66
72762;SHT30;60886;55.034;73.150;2023-07-13T13:40:21;32.77;41.33
72762;SHT30;60886;55.034;73.150;2023-07-13T13:43:25;32.67;41.96
72762;SHT30;60886;55.034;73.150;2023-07-13T13:46:28;32.62;42.26
72762;SHT30;60886;55.034;73.150;2023-07-13T13:49:31;32.66;41.86
72762;SHT30;60886;55.034;73.150;2023-07-13T13:52:32;32.66;42.33
72762;SHT30;60886;55.034;73.150;2023-07-13T13:55:34;32.63;42.77
72762;SHT30;60886;55.034;73.150;2023-07-13T13:58:36;32.59;42.77
72762;SHT30;60886;55.034;73.150;2023-07-13T14:01:38;32.55;43.28
72762;SHT30;60886;55.034;73.150;2023-07-13T14:04:40;32.51;43.82
72762;SHT30;60886;55.034;73.150;2023-07-13T14:07:42;32.38;44.43
72762;SHT30;60886;55.034;73.150;2023-07-13T14:10:50;32.32;44.92
72762;SHT30;60886;55.034;73.150;2023-07-13T14:13:57;32.19;45.30
72762;SHT30;60886;55.034;73.150;2023-07-13T14:16:59;32.12;45.50
72762;SHT30;60886;55.034;73.150;2023-07-13T14:20:01;31.96;46.11
72762;SHT30;60886;55.034;73.150;2023-07-13T14:23:15;31.84;46.17
72762;SHT30;60886;55.034;73.150;2023-07-13T14:26:22;31.78;46.36
72762;SHT30;60886;55.034;73.150;2023-07-13T14:29:24;31.74;46.34
72762;SHT30;60886;55.034;73.150;2023-07-13T14:32:26;31.71;46.46
72762;SHT30;60886;55.034;73.150;2023-07-13T14:35:27;31.65;46.74
72762;SHT30;60886;55.034;73.150;2023-07-13T14:38:29;31.64;46.96
72762;SHT30;60886;55.034;73.150;2023-07-13T14:41:30;31.57;47.18
72762;SHT30;60886;55.034;73.150;2023-07-13T14:44:33;31.43;47.81
72762;SHT30;60886;55.034;73.150;2023-07-13T14:47:34;31.33;47.65
72762;SHT30;60886;55.034;73.150;2023-07-13T14:50:36;31.33;47.94
72762;SHT30;60886;55.034;73.150;2023-07-13T14:53:39;31.30;47.64
72762;SHT30;60886;55.034;73.150;2023-07-13T14:56:41;31.27;47.76
72762;SHT30;60886;55.034;73.150;2023-07-13T14:59:43;31.21;48.49
72762;SHT30;60886;55.034;73.150;2023-07-13T15:02:51;31.03;49.67
72762;SHT30;60886;55.034;73.150;2023-07-13T15:05:55;30.93;47.48
72762;SHT30;60886;55.034;73.150;2023-07-13T15:08:56;30.89;46.00
72762;SHT30;60886;55.034;73.150;2023-07-13T15:11:58;30.86;45.43
72762;SHT30;60886;55.034;73.150;2023-07-13T15:15:00;30.84;44.38
72762;SHT30;60886;55.034;73.150;2023-07-13T15:18:01;30.83;44.19
72762;SHT30;60886;55.034;73.150;2023-07-13T15:21:03;30.78;43.70
72762;SHT30;60886;55.034;73.150;2023-07-13T15:24:05;30.72;43.52
72762;SHT30;60886;55.034;73.150;2023-07-13T15:27:12;30.63;45.05
72762;SHT30;60886;55.034;73.150;2023-07-13T15:30:14;30.51;45.01
72762;SHT30;60886;55.034;73.150;2023-07-13T15:33:26;30.32;44.94
72762;SHT30;60886;55.034;73.150;2023-07-13T15:36:28;30.15;46.78
72762;SHT30;60886;55.034;73.150;2023-07-13T15:39:30;30.08;47.58
72762;SHT30;60886;55.034;73.150;2023-07-13T15:42:32;29.92;46.80
72762;SHT30;60886;55.034;73.150;2023-07-13T15:45:34;29.85;46.10
72762;SHT30;60886;55.034;73.150;2023-07-13T15:48:35;29.75;46.54
72762;SHT30;60886;55.034;73.150;2023-07-13T15:51:37;29.68;46.65
72762;SHT30;60886;55.034;73.150;2023-07-13T15:54:39;29.58;46.07
72762;SHT30;60886;55.034;73.150;2023-07-13T15:57:49;29.51;45.82
72762;SHT30;60886;55.034;73.150;2023-07-13T16:00:51;29.44;45.53
72762;SHT30;60886;55.034;73.150;2023-07-13T16:09:22;29.20;48.21
72762;SHT30;60886;55.034;73.150;2023-07-13T16:12:24;29.09;47.33
72762;SHT30;60886;55.034;73.150;2023-07-13T16:15:25;29.00;49.59
72762;SHT30;60886;55.034;73.150;2023-07-13T16:18:26;28.86;50.14
72762;SHT30;60886;55.034;73.150;2023-07-13T16:21:32;28.76;48.33
72762;SHT30;60886;55.034;73.150;2023-07-13T16:24:34;28.61;48.73
72762;SHT30;60886;55.034;73.150;2023-07-13T16:27:36;28.53;47.56
72762;SHT30;60886;55.034;73.150;2023-07-13T16:30:38;28.48;48.76
72762;SHT30;60886;55.034;73.150;2023-07-13T16:33:39;28.41;48.70
72762;SHT30;60886;55.034;73.150;2023-07-13T16:36:42;28.31;48.38
72762;SHT30;60886;55.034;73.150;2023-07-13T16:39:50;28.22;47.98
72762;SHT30;60886;55.034;73.150;2023-07-13T16:42:59;28.18;48.96
72762;SHT30;60886;55.034;73.150;2023-07-13T16:46:00;28.08;50.41
72762;SHT30;60886;55.034;73.150;2023-07-13T16:49:19;27.91;48.96
72762;SHT30;60886;55.034;73.150;2023-07-13T16:52:21;27.78;50.51
72762;SHT30;60886;55.034;73.150;2023-07-13T16:55:24;27.74;52.04
72762;SHT30;60886;55.034;73.150;2023-07-13T16:58:32;27.67;50.85
72762;SHT30;60886;55.034;73.150;2023-07-13T17:01:35;27.61;51.73
72762;SHT30;60886;55.034;73.150;2023-07-13T17:04:37;27.53;52.36
72762;SHT30;60886;55.034;73.150;2023-07-13T17:07:40;27.49;51.75
72762;SHT30;60886;55.034;73.150;2023-07-13T17:10:48;27.43;52.85
72762;SHT30;60886;55.034;73.150;2023-07-13T17:13:50;27.44;52.15
72762;SHT30;60886;55.034;73.150;2023-07-13T17:16:55;27.40;52.72
72762;SHT30;60886;55.034;73.150;2023-07-13T17:19:58;27.37;52.51
72762;SHT30;60886;55.034;73.150;2023-07-13T17:23:00;27.34;51.20
72762;SHT30;60886;55.034;73.150;2023-07-13T17:26:03;27.36;51.61
72762;SHT30;60886;55.034;73.150;2023-07-13T17:29:05;27.32;50.92
72762;SHT30;60886;55.034;73.150;2023-07-13T17:32:14;27.36;50.47
72762;SHT30;60886;55.034;73.150;2023-07-13T17:35:27;27.34;50.59
72762;SHT30;60886;55.034;73.150;2023-07-13T17:38:41;27.24;50.79
72762;SHT30;60886;55.034;73.150;2023-07-13T17:41:44;27.20;53.55
72762;SHT30;60886;55.034;73.150;2023-07-13T17:44:46;27.06;54.20
72762;SHT30;60886;55.034;73.150;2023-07-13T17:47:47;26.96;54.54
72762;SHT30;60886;55.034;73.150;2023-07-13T17:50:50;26.83;53.79
72762;SHT30;60886;55.034;73.150;2023-07-13T17:53:57;26.76;54.91
72762;SHT30;60886;55.034;73.150;2023-07-13T17:56:59;26.63;56.60
72762;SHT30;60886;55.034;73.150;2023-07-13T18:00:00;26.51;56.77
72762;SHT30;60886;55.034;73.150;2023-07-13T18:03:11;26.44;55.82
72762;SHT30;60886;55.034;73.150;2023-07-13T18:06:34;26.37;57.56
72762;SHT30;60886;55.034;73.150;2023-07-13T18:09:37;26.28;57.33
72762;SHT30;60886;55.034;73.150;2023-07-13T18:12:41;26.24;57.31
72762;SHT30;60886;55.034;73.150;2023-07-13T18:15:48;26.11;57.11
72762;SHT30;60886;55.034;73.150;2023-07-13T18:18:52;26.01;56.67
72762;SHT30;60886;55.034;73.150;2023-07-13T18:21:54;26.01;56.54
72762;SHT30;60886;55.034;73.150;2023-07-13T18:24:55;25.94;56.74
72762;SHT30;60886;55.034;73.150;2023-07-13T18:27:57;25.84;57.60
72762;SHT30;60886;55.034;73.150;2023-07-13T18:30:58;25.73;58.19
72762;SHT30;60886;55.034;73.150;2023-07-13T18:34:00;25.67;59.75
72762;SHT30;60886;55.034;73.150;2023-07-13T18:37:03;25.59;58.81
72762;SHT30;60886;55.034;73.150;2023-07-13T18:40:16;25.53;58.89
72762;SHT30;60886;55.034;73.150;2023-07-13T18:43:19;25.46;57.12
72762;SHT30;60886;55.034;73.150;2023-07-13T18:46:24;25.36;58.78
72762;SHT30;60886;55.034;73.150;2023-07-13T18:49:26;25.30;58.36
72762;SHT30;60886;55.034;73.150;2023-07-13T18:52:27;25.22;57.45
72762;SHT30;60886;55.034;73.150;2023-07-13T18:55:28;25.19;59.22
72762;SHT30;60886;55.034;73.150;2023-07-13T18:58:30;25.12;58.00
72762;SHT30;60886;55.034;73.150;2023-07-13T19:01:34;25.04;59.51
72762;SHT30;60886;55.034;73.150;2023-07-13T19:04:36;25.04;59.16
72762;SHT30;60886;55.034;73.150;2023-07-13T19:07:37;25.15;58.59
72762;SHT30;60886;55.034;73.150;2023-07-13T19:10:50;25.23;59.09
72762;SHT30;60886;55.034;73.150;2023-07-13T19:13:52;25.35;58.77
72762;SHT30;60886;55.034;73.150;2023-07-13T19:16:55;25.29;60.48
72762;SHT30;60886;55.034;73.150;2023-07-13T19:19:58;25.26;59.38
72762;SHT30;60886;55.034;73.150;2023-07-13T19:23:02;25.25;60.98
72762;SHT30;60886;55.034;73.150;2023-07-13T19:26:08;25.16;60.07
72762;SHT30;60886;55.034;73.150;2023-07-13T19:29:13;25.15;61.60
72762;SHT30;60886;55.034;73.150;2023-07-13T19:32:15;24.99;61.33
72762;SHT30;60886;55.034;73.150;2023-07-13T19:35:18;24.89;61.27
72762;SHT30;60886;55.034;73.150;2023-07-13T19:38:22;24.79;61.60
72762;SHT30;60886;55.034;73.150;2023-07-13T19:41:27;24.72;62.87